Time;durP1;ratioP1;P1;durP2;ratioP2;P2;SDS_P1;SDS_P2;PMS_P1;PMS_P2;Temp;Humidity;BMP_temperature;BMP_pressure;BME280_temperature;BME280_humidity;BME280_pressure;Samples;Min_cycle;Max_cycle;Signal;HPM_P1;HPM_P2
2023/01/30 00:00:44;;;;;;;57.70;20.00;;;;;;;-148.88;100.00;77057.09;5055337;28;20044;-83
2023/01/30 00:03:09;;;;;;;51.30;19.35;;;;;;;-148.88;100.00;77065.22;5056383;28;20509;-83
2023/01/30 00:05:38;;;;;;;53.63;19.77;;;;;;;-148.88;100.00;77069.28;5055768;28;20112;-84
2023/01/30 00:08:04;;;;;;;57.20;22.30;;;;;;;-148.88;100.00;77079.44;5055770;28;20116;-83
2023/01/30 00:10:29;;;;;;;46.78;17.02;;;;;;;-148.88;100.00;77081.47;5057945;28;20139;-83
2023/01/30 00:12:55;;;;;;;54.60;21.05;;;;;;;-148.88;100.00;77081.47;5055435;28;20113;-83
2023/01/30 00:15:21;;;;;;;55.17;20.90;;;;;;;-148.88;100.00;77077.41;5055899;28;20025;-83
2023/01/30 00:17:46;;;;;;;54.75;19.73;;;;;;;-148.88;100.00;77057.09;5055813;28;20025;-83
2023/01/30 00:20:12;;;;;;;57.17;20.05;;;;;;;-148.88;100.00;77048.97;5054699;28;20029;-83
2023/01/30 00:22:37;;;;;;;58.83;21.10;;;;;;;-148.88;100.00;77044.91;5053872;28;20116;-83
2023/01/30 00:25:02;;;;;;;61.45;21.20;;;;;;;-148.88;100.00;77044.91;5055083;28;20024;-82
2023/01/30 00:27:29;;;;;;;52.40;19.00;;;;;;;-148.88;100.00;77036.78;5056008;28;20025;-84
2023/01/30 00:29:54;;;;;;;46.92;16.73;;;;;;;-148.88;100.00;77028.66;5055159;28;20483;-83
2023/01/30 00:32:19;;;;;;;57.63;22.13;;;;;;;-148.88;100.00;77028.66;5055485;28;20083;-83
2023/01/30 00:34:44;;;;;;;49.05;18.38;;;;;;;-148.88;100.00;77036.78;5056426;28;20021;-84
2023/01/30 00:37:10;;;;;;;55.75;19.60;;;;;;;-148.88;100.00;77024.59;5056998;28;20025;-84
2023/01/30 00:39:36;;;;;;;66.00;22.40;;;;;;;-148.88;100.00;77030.69;5055422;28;20071;-84
2023/01/30 00:47:32;;;;;;;50.95;17.85;;;;;;;-148.88;100.00;77006.31;5056670;28;20433;-84
2023/01/30 00:49:58;;;;;;;58.20;19.63;;;;;;;-148.88;100.00;77004.25;5054710;28;20033;-84
2023/01/30 00:52:24;;;;;;;53.83;18.23;;;;;;;-148.88;100.00;76979.88;5056194;28;20021;-83
2023/01/30 00:54:51;;;;;;;58.50;20.63;;;;;;;-148.88;100.00;76998.16;5055169;28;20494;-83
2023/01/30 00:57:16;;;;;;;60.33;22.27;;;;;;;-148.88;100.00;76979.88;5052802;28;20025;-83
2023/01/30 00:59:42;;;;;;;49.67;19.40;;;;;;;-148.88;100.00;76988.00;5053344;28;20494;-83
2023/01/30 01:02:08;;;;;;;64.00;20.85;;;;;;;-148.88;100.00;76969.72;5053139;28;20108;-83
2023/01/30 01:04:42;;;;;;;54.50;19.92;;;;;;;-148.88;100.00;76975.81;5053466;28;20398;-84
2023/01/30 01:07:14;;;;;;;54.88;21.95;;;;;;;-148.88;100.00;76971.75;5054564;28;20075;-83
2023/01/30 01:09:41;;;;;;;56.28;20.80;;;;;;;-148.88;100.00;76955.50;5055708;28;20125;-84
2023/01/30 01:12:07;;;;;;;55.70;20.02;;;;;;;-148.88;100.00;76939.25;5055400;28;20064;-83
2023/01/30 01:14:33;;;;;;;58.55;22.80;;;;;;;-148.88;100.00;76931.13;5057135;28;20024;-83
2023/01/30 01:17:02;;;;;;;56.38;19.15;;;;;;;-148.88;100.00;76933.16;5055852;28;20063;-84
2023/01/30 01:19:28;;;;;;;58.50;20.27;;;;;;;-148.88;100.00;76925.03;5056374;28;20028;-84
2023/01/30 01:21:53;;;;;;;58.83;22.38;;;;;;;-148.88;100.00;76929.09;5056037;28;20032;-84
2023/01/30 01:24:19;;;;;;;66.13;23.02;;;;;;;-148.88;100.00;76904.72;5055612;28;20108;-84
2023/01/30 01:26:44;;;;;;;58.70;21.33;;;;;;;-148.88;100.00;76898.63;5056868;28;20044;-83
2023/01/30 01:29:14;;;;;;;60.47;20.15;;;;;;;-148.88;100.00;76892.53;5056184;28;20021;-84
2023/01/30 01:31:42;;;;;;;62.08;21.88;;;;;;;-148.88;100.00;76912.84;5055898;28;20025;-83
2023/01/30 01:34:07;;;;;;;58.10;21.40;;;;;;;-148.88;100.00;76898.63;5052165;28;20029;-84
2023/01/30 01:36:33;;;;;;;68.05;23.15;;;;;;;-148.88;100.00;76890.50;5053625;28;20025;-83
2023/01/30 01:38:58;;;;;;;55.63;21.42;;;;;;;-148.88;100.00;76886.41;5052741;28;20033;-83
2023/01/30 01:41:25;;;;;;;53.83;19.08;;;;;;;-148.88;100.00;76876.25;5054554;28;20391;-84
2023/01/30 01:44:07;;;;;;;48.45;18.10;;;;;;;-148.88;100.00;76886.41;5055373;28;20030;-83
2023/01/30 01:46:53;;;;;;;65.65;22.95;;;;;;;-148.88;100.00;76884.38;5055621;28;20048;-83
2023/01/30 01:49:24;;;;;;;65.25;21.08;;;;;;;-148.88;100.00;76882.34;5056347;28;20116;-83
2023/01/30 01:52:02;;;;;;;64.40;23.35;;;;;;;-148.88;100.00;76874.22;5054973;28;20029;-83
2023/01/30 01:54:33;;;;;;;63.13;22.25;;;;;;;-148.88;100.00;76874.22;5055631;28;20078;-84
2023/01/30 01:57:03;;;;;;;64.95;24.80;;;;;;;-148.88;100.00;76857.97;5092817;22;21789;-85
2023/01/30 01:59:39;;;;;;;65.03;21.30;;;;;;;-148.88;100.00;76845.78;5053703;28;20040;-85
2023/01/30 02:02:09;;;;;;;62.60;23.15;;;;;;;-148.88;100.00;76849.84;5053909;28;20028;-85
2023/01/30 02:07:21;;;;;;;82.82;24.52;;;;;;;-148.88;100.00;76829.53;5055300;28;20028;-85
2023/01/30 02:09:47;;;;;;;74.40;27.70;;;;;;;-148.88;100.00;76817.34;5053657;28;20021;-84
2023/01/30 02:12:14;;;;;;;84.45;26.27;;;;;;;-148.88;100.00;76827.50;5053609;28;20399;-84
2023/01/30 02:14:40;;;;;;;79.80;26.17;;;;;;;-148.88;100.00;76803.13;5053761;28;20044;-84
2023/01/30 02:17:05;;;;;;;75.60;24.02;;;;;;;-148.88;100.00;76780.78;5053896;28;20040;-85
2023/01/30 02:19:53;;;;;;;81.57;27.92;;;;;;;-148.88;100.00;76784.84;5053821;28;20451;-85
2023/01/30 02:22:43;;;;;;;74.38;26.30;;;;;;;-148.88;100.00;76772.66;5057261;28;20122;-85
2023/01/30 02:25:40;;;;;;;67.28;21.73;;;;;;;-148.88;100.00;76768.59;5056325;28;20073;-84
2023/01/30 02:28:25;;;;;;;91.03;28.20;;;;;;;-148.88;100.00;76768.59;5056145;28;20021;-84
2023/01/30 02:31:06;;;;;;;80.97;24.60;;;;;;;-148.88;100.00;76766.56;5056846;28;20029;-84
2023/01/30 02:33:45;;;;;;;95.07;30.27;;;;;;;-148.88;100.00;76764.53;5055893;28;20021;-84
2023/01/30 02:36:40;;;;;;;85.85;27.33;;;;;;;-148.88;100.00;76764.53;5056076;28;20017;-84
2023/01/30 02:39:30;;;;;;;92.25;30.73;;;;;;;-148.88;100.00;76756.41;5056262;28;20075;-83
2023/01/30 02:42:08;;;;;;;97.18;30.15;;;;;;;-148.88;100.00;76742.16;5056590;28;20471;-85
2023/01/30 02:44:43;;;;;;;81.82;25.95;;;;;;;-148.88;100.00;76744.19;5058073;28;20028;-85
2023/01/30 02:47:17;;;;;;;93.60;29.42;;;;;;;-148.88;100.00;76734.03;5056097;28;20023;-86
2023/01/30 02:49:50;;;;;;;80.32;25.73;;;;;;;-148.88;100.00;76732.00;5057497;28;20028;-85
2023/01/30 02:52:15;;;;;;;88.95;27.88;;;;;;;-148.88;100.00;76717.78;5077537;28;20016;-84
2023/01/30 02:54:40;;;;;;;89.88;30.20;;;;;;;-148.88;100.00;76717.78;5076734;28;20025;-87
2023/01/30 02:57:20;;;;;;;83.32;28.17;;;;;;;-148.88;100.00;76703.56;5060248;28;20059;-84
2023/01/30 02:59:55;;;;;;;87.85;28.33;;;;;;;-148.88;100.00;76687.31;5055883;28;20029;-84
2023/01/30 03:03:08;;;;;;;98.97;30.98;;;;;;;-148.88;100.00;76687.31;5064509;28;20033;-86
2023/01/30 03:06:08;;;;;;;95.00;31.15;;;;;;;-148.88;100.00;76691.38;5061381;28;20020;-84
2023/01/30 03:08:58;;;;;;;91.57;28.50;;;;;;;-148.88;100.00;76683.25;5060588;28;20024;-86
2023/01/30 03:11:34;;;;;;;90.97;28.15;;;;;;;-148.88;100.00;76683.25;5061484;28;20028;-86
2023/01/30 03:14:32;;;;;;;84.05;25.42;;;;;;;-148.88;100.00;76662.94;5060183;28;20484;-86
2023/01/30 03:17:00;;;;;;;86.57;27.50;;;;;;;-148.88;100.00;76671.06;5046929;28;20482;-84
2023/01/30 03:19:28;;;;;;;94.18;26.10;;;;;;;-148.88;100.00;76656.84;5058699;28;20454;-86
2023/01/30 03:21:53;;;;;;;76.95;25.52;;;;;;;-148.88;100.00;76654.81;5058613;28;20027;-86
2023/01/30 03:24:19;;;;;;;84.07;25.50;;;;;;;-148.88;100.00;76652.78;5058598;28;20060;-86
2023/01/30 03:26:53;;;;;;;79.78;26.63;;;;;;;-148.88;100.00;76638.56;5058987;28;20013;-85
2023/01/30 03:29:18;;;;;;;70.78;23.33;;;;;;;-148.88;100.00;76634.50;5059402;28;20511;-86
2023/01/30 03:31:44;;;;;;;64.10;21.90;;;;;;;-148.88;100.00;76620.28;5055840;28;20053;-85
2023/01/30 03:34:09;;;;;;;73.55;23.20;;;;;;;-148.88;100.00;76612.13;5055876;28;20029;-84
2023/01/30 03:36:34;;;;;;;60.13;22.33;;;;;;;-148.88;100.00;76610.13;5056434;28;20021;-85
2023/01/30 03:39:00;;;;;;;50.30;20.05;;;;;;;-148.88;100.00;76589.78;5056188;28;20426;-84
2023/01/30 03:41:25;;;;;;;64.60;23.67;;;;;;;-148.88;100.00;76601.97;5056539;28;20029;-84
2023/01/30 03:43:50;;;;;;;55.03;21.55;;;;;;;-148.88;100.00;76587.75;5055483;28;20395;-84
2023/01/30 03:46:16;;;;;;;55.42;21.80;;;;;;;-148.88;100.00;76573.53;5055895;28;20029;-85
2023/01/30 03:48:41;;;;;;;55.72;19.85;;;;;;;-148.88;100.00;76589.78;5056246;28;20021;-86
2023/01/30 03:51:06;;;;;;;52.75;19.65;;;;;;;-148.88;100.00;76577.59;5055867;28;20033;-85
2023/01/30 03:53:31;;;;;;;50.42;18.05;;;;;;;-148.88;100.00;76569.47;5057499;28;20021;-86
2023/01/30 03:55:57;;;;;;;58.22;21.33;;;;;;;-148.88;100.00;76563.38;5057570;28;20391;-85
2023/01/30 03:58:22;;;;;;;53.30;18.63;;;;;;;-148.88;100.00;76555.25;5055897;28;20037;-85
2023/01/30 04:00:47;;;;;;;51.63;20.17;;;;;;;-148.88;100.00;76565.41;5057362;28;20075;-85
2023/01/30 04:03:14;;;;;;;43.80;16.35;;;;;;;-148.88;100.00;76549.16;5056878;28;20031;-86
2023/01/30 04:05:41;;;;;;;46.28;16.83;;;;;;;-148.88;100.00;76532.91;5056124;28;20446;-84
2023/01/30 04:08:07;;;;;;;47.50;17.48;;;;;;;-148.88;100.00;76549.16;5055101;28;20032;-85
2023/01/30 04:10:35;;;;;;;43.17;18.60;;;;;;;-148.88;100.00;76545.09;5054992;28;20029;-84
2023/01/30 04:13:00;;;;;;;41.65;16.77;;;;;;;-148.88;100.00;76524.78;5055071;28;20029;-84
2023/01/30 04:15:26;;;;;;;41.58;16.42;;;;;;;-148.88;100.00;76510.56;5054181;28;20074;-84
2023/01/30 04:17:54;;;;;;;46.13;18.55;;;;;;;-148.88;100.00;76504.47;5055704;28;20029;-84
2023/01/30 04:20:25;;;;;;;44.97;18.10;;;;;;;-148.88;100.00;76492.28;5054315;28;20020;-86
2023/01/30 04:22:50;;;;;;;47.33;17.15;;;;;;;-148.88;100.00;76486.19;5054820;28;20024;-84
2023/01/30 04:25:15;;;;;;;45.80;16.83;;;;;;;-148.88;100.00;76488.22;5056263;28;20086;-84
2023/01/30 04:27:41;;;;;;;49.95;18.80;;;;;;;-148.88;100.00;76486.19;5055628;28;20108;-84
2023/01/30 04:30:17;;;;;;;51.88;18.60;;;;;;;-148.88;100.00;76482.13;5055988;28;20032;-85
2023/01/30 04:33:21;;;;;;;47.97;18.02;;;;;;;-148.88;100.00;76484.16;5055379;28;20419;-85
2023/01/30 04:35:53;;;;;;;43.53;16.67;;;;;;;-148.88;100.00;76471.97;5056676;28;20040;-84
2023/01/30 04:38:20;;;;;;;37.83;14.85;;;;;;;-148.88;100.00;76465.88;5054765;28;20272;-86
2023/01/30 04:40:50;;;;;;;42.90;15.95;;;;;;;-148.88;100.00;76463.84;5058249;28;20074;-84
2023/01/30 04:43:16;;;;;;;39.72;15.68;;;;;;;-148.88;100.00;76443.53;5052475;28;20035;-85
2023/01/30 04:45:46;;;;;;;37.10;14.88;;;;;;;-148.88;100.00;76433.38;5053646;28;20025;-86
2023/01/30 04:48:12;;;;;;;36.05;13.70;;;;;;;-148.88;100.00;76427.28;5052243;28;20032;-86
2023/01/30 04:50:38;;;;;;;30.98;12.70;;;;;;;-148.88;100.00;76419.16;5053977;28;20032;-85
2023/01/30 04:53:04;;;;;;;26.42;11.43;;;;;;;-148.88;100.00;76406.94;5053562;28;20029;-86
2023/01/30 04:55:29;;;;;;;30.95;12.40;;;;;;;-148.88;100.00;76398.81;5052221;28;20017;-84
2023/01/30 04:57:54;;;;;;;33.22;12.70;;;;;;;-148.88;100.00;76384.59;5053068;28;20097;-85
2023/01/30 05:00:21;;;;;;;27.15;11.93;;;;;;;-148.88;100.00;76394.75;5054329;28;20131;-85
2023/01/30 05:02:51;;;;;;;31.92;12.40;;;;;;;-148.88;100.00;76390.69;5053475;28;20053;-86
2023/01/30 05:05:17;;;;;;;26.02;11.10;;;;;;;-148.88;100.00;76390.69;5052332;28;20108;-85
2023/01/30 05:07:42;;;;;;;26.45;11.88;;;;;;;-148.88;100.00;76378.50;5052623;28;20120;-86
2023/01/30 05:10:08;;;;;;;25.45;11.13;;;;;;;-148.88;100.00;76382.56;5057234;28;20035;-85
2023/01/30 05:12:34;;;;;;;32.97;12.13;;;;;;;-148.88;100.00;76372.41;5054908;28;20021;-84
2023/01/30 05:15:00;;;;;;;29.40;12.82;;;;;;;-148.88;100.00;76384.59;5053960;28;20055;-84
2023/01/30 05:17:25;;;;;;;27.45;11.23;;;;;;;-148.88;100.00;76366.31;5053512;28;20025;-86
2023/01/30 05:19:50;;;;;;;24.10;10.50;;;;;;;-148.88;100.00;76372.41;5052266;28;20032;-85
2023/01/30 05:22:16;;;;;;;23.60;11.10;;;;;;;-148.88;100.00;76378.50;5053370;28;20024;-84
2023/01/30 05:24:41;;;;;;;27.27;11.48;;;;;;;-148.88;100.00;76368.34;5053775;28;20040;-85
2023/01/30 05:27:06;;;;;;;27.73;11.07;;;;;;;-148.88;100.00;76376.47;5053191;28;20111;-84
2023/01/30 05:29:31;;;;;;;23.40;8.75;;;;;;;-148.88;100.00;76370.38;5055257;28;20024;-85
2023/01/30 05:31:57;;;;;;;23.05;10.02;;;;;;;-148.88;100.00;76370.38;5052339;28;20028;-84
2023/01/30 05:34:22;;;;;;;21.58;9.43;;;;;;;-148.88;100.00;76374.44;5052293;28;20033;-84
2023/01/30 05:36:53;;;;;;;20.00;8.88;;;;;;;-148.88;100.00;76382.56;5070631;28;20009;-85
2023/01/30 05:39:22;;;;;;;19.08;8.02;;;;;;;-148.88;100.00;76370.38;5075566;28;20043;-86
2023/01/30 05:45:14;;;;;;;19.63;7.75;;;;;;;-148.88;100.00;76382.56;4992062;28;20116;-87
2023/01/30 05:47:49;;;;;;;16.25;7.28;;;;;;;-148.88;100.00;76396.78;5050278;28;20483;-86
2023/01/30 05:50:18;;;;;;;15.82;7.60;;;;;;;-148.88;100.00;76402.88;5052720;28;20039;-86
2023/01/30 05:52:59;;;;;;;15.55;7.60;;;;;;;-148.88;100.00;76408.97;5051047;28;20509;-87
2023/01/30 05:55:42;;;;;;;13.63;6.40;;;;;;;-148.88;100.00;76386.63;5053463;28;20047;-87
2023/01/30 05:58:11;;;;;;;13.88;6.65;;;;;;;-148.88;100.00;76394.75;5056176;28;20426;-86
2023/01/30 06:00:49;;;;;;;9.85;4.47;;;;;;;-148.88;100.00;76390.69;5056909;28;20025;-89
2023/01/30 06:03:20;;;;;;;6.07;3.15;;;;;;;-148.88;100.00;76378.50;5056298;28;20063;-90
2023/01/30 06:05:51;;;;;;;7.80;3.67;;;;;;;-148.88;100.00;76388.66;5057356;28;20102;-89
2023/01/30 06:08:32;;;;;;;;;;;;;;;;;;;;;
2023/01/30 06:13:28;;;;;;;16.95;7.25;;;;;;;-148.88;100.00;76382.56;5075855;28;20045;-80
2023/01/30 06:15:54;;;;;;;14.07;5.90;;;;;;;-148.88;100.00;76376.47;5078159;28;20079;-80
2023/01/30 06:18:19;;;;;;;10.70;5.20;;;;;;;-148.88;100.00;76362.25;5078729;28;20402;-80
2023/01/30 06:20:49;;;;;;;10.23;4.75;;;;;;;-148.88;100.00;76366.31;5079642;28;20024;-81
2023/01/30 06:23:14;;;;;;;12.32;5.88;;;;;;;-148.88;100.00;76378.50;5079466;28;20376;-80
2023/01/30 06:25:47;;;;;;;12.80;5.78;;;;;;;-148.88;100.00;76382.56;5079409;28;20028;-80
2023/01/30 06:28:13;;;;;;;10.93;5.00;;;;;;;-148.88;100.00;76376.47;5076669;28;20056;-80
2023/01/30 06:30:39;;;;;;;12.30;5.13;;;;;;;-148.88;100.00;76378.50;5076594;28;20032;-79
2023/01/30 06:33:05;;;;;;;12.27;5.13;;;;;;;-148.88;100.00;76374.44;5077199;28;20024;-79
2023/01/30 06:35:30;;;;;;;11.93;5.22;;;;;;;-148.88;100.00;76366.31;5075640;28;20444;-80
2023/01/30 06:37:55;;;;;;;15.02;4.30;;;;;;;-148.88;100.00;76372.41;5076091;28;20089;-79
2023/01/30 06:40:21;;;;;;;11.57;5.18;;;;;;;-148.88;100.00;76366.31;5077705;28;20108;-80
2023/01/30 06:42:48;;;;;;;9.68;5.20;;;;;;;-148.88;100.00;76370.38;5076755;28;20092;-79
2023/01/30 06:45:15;;;;;;;11.13;4.43;;;;;;;-148.88;100.00;76362.25;5078109;28;20205;-80
2023/01/30 06:47:45;;;;;;;11.57;4.35;;;;;;;-148.88;100.00;76366.31;5077486;28;20024;-81
2023/01/30 06:50:10;;;;;;;15.98;5.18;;;;;;;-148.88;100.00;76370.38;5077136;28;20028;-81
2023/01/30 06:52:40;;;;;;;16.92;4.50;;;;;;;-148.88;100.00;76372.41;5078836;28;20063;-80
2023/01/30 06:55:06;;;;;;;20.65;4.55;;;;;;;-148.88;100.00;76362.25;5078314;28;20052;-80
2023/01/30 06:57:31;;;;;;;10.25;4.03;;;;;;;-148.88;100.00;76358.19;5077273;28;20035;-80
2023/01/30 06:59:56;;;;;;;16.70;4.43;;;;;;;-148.88;100.00;76364.28;5077133;28;20028;-81
2023/01/30 07:02:22;;;;;;;12.90;3.97;;;;;;;-148.88;100.00;76370.38;5076507;28;20394;-81
2023/01/30 07:04:47;;;;;;;13.95;3.92;;;;;;;-148.88;100.00;76343.97;5077123;28;20390;-79
2023/01/30 07:07:12;;;;;;;13.18;3.75;;;;;;;-148.88;100.00;76354.13;5075584;28;20495;-79
2023/01/30 07:09:37;;;;;;;12.07;4.38;;;;;;;-148.88;100.00;76366.31;5074621;28;20035;-80
2023/01/30 07:12:03;;;;;;;12.88;3.13;;;;;;;-148.88;100.00;76366.31;5076242;28;20036;-80
2023/01/30 07:14:28;;;;;;;12.85;3.22;;;;;;;-148.88;100.00;76366.31;5075265;28;20029;-80
2023/01/30 07:16:53;;;;;;;5.72;3.10;;;;;;;-148.88;100.00;76362.25;5076862;28;20021;-80
2023/01/30 07:19:19;;;;;;;7.20;2.67;;;;;;;-148.88;100.00;76356.16;5077423;28;20111;-79
2023/01/30 07:21:44;;;;;;;13.40;2.95;;;;;;;-148.88;100.00;76368.34;5077891;28;20375;-79
2023/01/30 07:24:09;;;;;;;13.00;2.95;;;;;;;-148.88;100.00;76362.25;5077550;28;20031;-79
2023/01/30 07:26:35;;;;;;;11.52;2.78;;;;;;;-148.88;100.00;76366.31;5077658;28;20025;-80
2023/01/30 07:29:00;;;;;;;12.07;2.20;;;;;;;-148.88;100.00;76374.44;5079344;28;20080;-81
2023/01/30 07:31:25;;;;;;;14.98;2.13;;;;;;;-148.88;100.00;76378.50;5085520;28;20032;-80
2023/01/30 07:33:50;;;;;;;8.70;1.80;;;;;;;-148.88;100.00;76364.28;5085397;28;20425;-80
2023/01/30 07:36:16;;;;;;;10.30;2.35;;;;;;;-148.88;100.00;76390.69;5079124;28;20020;-81
2023/01/30 07:38:41;;;;;;;17.65;3.45;;;;;;;-148.88;100.00;76394.75;5079307;28;20032;-81
2023/01/30 07:41:06;;;;;;;12.95;2.10;;;;;;;-148.88;100.00;76388.66;5077079;28;20020;-81
2023/01/30 07:43:31;;;;;;;17.10;2.55;;;;;;;-148.88;100.00;76396.78;5075424;28;20376;-80
2023/01/30 07:45:59;;;;;;;12.02;2.10;;;;;;;-148.88;100.00;76384.59;5073614;28;20016;-80
2023/01/30 07:48:24;;;;;;;12.35;1.92;;;;;;;-148.88;100.00;76382.56;5074702;28;20525;-80
2023/01/30 07:50:49;;;;;;;9.75;1.95;;;;;;;-148.88;100.00;76380.53;5078190;28;20052;-81
2023/01/30 07:53:17;;;;;;;11.27;2.47;;;;;;;-148.88;100.00;76386.63;5078145;28;20031;-80
2023/01/30 07:55:43;;;;;;;11.90;2.58;;;;;;;-148.88;100.00;76394.75;5076520;28;20364;-81
2023/01/30 07:58:13;;;;;;;14.13;2.30;;;;;;;-148.88;100.00;76388.66;5078323;28;20074;-81
2023/01/30 08:00:39;;;;;;;23.17;2.45;;;;;;;-148.88;100.00;76386.63;5076823;28;20100;-80
2023/01/30 08:03:04;;;;;;;7.88;1.55;;;;;;;-148.88;100.00;76386.63;5076091;28;20035;-81
2023/01/30 08:05:30;;;;;;;11.27;1.92;;;;;;;-148.88;100.00;76382.56;5077832;28;20038;-80
2023/01/30 08:07:56;;;;;;;11.02;2.00;;;;;;;-148.88;100.00;76382.56;5076637;28;20503;-81
2023/01/30 08:10:21;;;;;;;12.43;2.22;;;;;;;-148.88;100.00;76382.56;5077931;28;20372;-80
2023/01/30 08:12:50;;;;;;;17.52;1.90;;;;;;;-148.88;100.00;76376.47;5076920;28;20088;-80
2023/01/30 08:15:15;;;;;;;12.23;2.13;;;;;;;-148.88;100.00;76398.81;5075571;28;20044;-80
2023/01/30 08:17:41;;;;;;;12.95;2.80;;;;;;;-148.88;100.00;76378.50;5077310;28;20033;-81
2023/01/30 08:20:07;;;;;;;9.38;1.92;;;;;;;-148.88;100.00;76384.59;5072795;28;20028;-79
2023/01/30 08:22:32;;;;;;;9.77;2.22;;;;;;;-148.88;100.00;76382.56;5072856;28;20074;-79
2023/01/30 08:24:58;;;;;;;11.88;2.33;;;;;;;-148.88;100.00;76366.31;5075173;28;20426;-80
2023/01/30 08:27:23;;;;;;;13.43;2.50;;;;;;;-148.88;100.00;76386.63;5076233;28;20025;-81
2023/01/30 08:29:48;;;;;;;8.23;2.80;;;;;;;-148.88;100.00;76380.53;5076281;28;20024;-80
2023/01/30 08:32:14;;;;;;;13.05;2.15;;;;;;;-148.88;100.00;76382.56;5076688;28;20478;-81
2023/01/30 08:34:39;;;;;;;13.02;2.80;;;;;;;-148.88;100.00;76366.31;5076326;28;20448;-80
2023/01/30 08:37:04;;;;;;;13.55;2.55;;;;;;;-148.88;100.00;76380.53;5076991;28;20020;-81
2023/01/30 08:39:29;;;;;;;10.18;2.20;;;;;;;-148.88;100.00;76384.59;5075766;28;20066;-81
2023/01/30 08:41:55;;;;;;;10.50;2.25;;;;;;;-148.88;100.00;76382.56;5075498;28;20035;-81
2023/01/30 08:44:20;;;;;;;12.55;1.90;;;;;;;-148.88;100.00;76374.44;5076779;28;20024;-81
2023/01/30 08:46:45;;;;;;;14.85;2.28;;;;;;;-148.88;100.00;76384.59;5075341;28;20479;-80
2023/01/30 08:49:11;;;;;;;13.95;2.33;;;;;;;-148.88;100.00;76382.56;5075409;28;20035;-81
2023/01/30 08:51:36;;;;;;;8.93;2.10;;;;;;;-148.88;100.00;76382.56;5075295;28;20043;-81
2023/01/30 08:54:02;;;;;;;14.77;2.30;;;;;;;-148.88;100.00;76392.72;5076499;28;20024;-80
2023/01/30 08:56:27;;;;;;;13.48;2.03;;;;;;;-148.88;100.00;76386.63;5071920;28;20028;-80
2023/01/30 08:58:52;;;;;;;7.60;1.63;;;;;;;-148.88;100.00;76388.66;5072822;28;20503;-80
2023/01/30 09:01:17;;;;;;;8.35;2.08;;;;;;;-148.88;99.59;76386.63;5073972;28;20024;-80
2023/01/30 09:03:43;;;;;;;13.07;2.30;;;;;;;-148.88;99.12;76388.66;5073501;28;20426;-79
2023/01/30 09:06:08;;;;;;;15.73;2.38;;;;;;;-148.88;98.89;76362.25;5073292;28;20383;-79
2023/01/30 09:08:34;;;;;;;16.80;3.25;;;;;;;-148.88;100.00;76374.44;5075238;28;20107;-79
2023/01/30 09:11:00;;;;;;;14.52;3.30;;;;;;;-148.88;99.75;76368.34;5073934;28;20028;-80
2023/01/30 09:13:26;;;;;;;12.25;3.10;;;;;;;-148.88;99.63;76370.38;5075652;28;20051;-80
2023/01/30 09:15:52;;;;;;;13.38;2.65;;;;;;;-148.88;98.12;76362.25;5075796;28;20032;-81
2023/01/30 09:18:17;;;;;;;10.13;2.15;;;;;;;-148.88;96.17;76354.13;5075936;28;20017;-81
2023/01/30 09:20:42;;;;;;;10.45;1.77;;;;;;;-148.88;96.02;76362.25;5074211;28;20028;-80
2023/01/30 09:23:08;;;;;;;13.73;2.60;;;;;;;-148.88;96.59;76350.06;5076885;28;20059;-79
2023/01/30 09:25:33;;;;;;;18.70;2.65;;;;;;;-148.88;95.74;76341.94;5076351;28;20033;-81
2023/01/30 09:27:58;;;;;;;9.98;2.08;;;;;;;-148.88;95.50;76337.88;5075302;28;20043;-81
2023/01/30 09:30:24;;;;;;;14.88;1.88;;;;;;;-148.88;97.87;76352.09;5078038;28;20052;-80
2023/01/30 09:32:49;;;;;;;14.93;2.33;;;;;;;-148.88;99.86;76386.63;5077004;28;20433;-79
2023/01/30 09:35:15;;;;;;;14.55;3.00;;;;;;;-148.88;100.00;76404.91;5079107;28;20031;-80
2023/01/30 09:37:51;;;;;;;19.30;2.45;;;;;;;-148.88;100.00;76411.00;5079798;28;20441;-79
2023/01/30 09:40:28;;;;;;;20.15;2.30;;;;;;;-148.88;100.00;76404.91;5078303;28;20020;-81
2023/01/30 09:43:09;;;;;;;11.70;2.42;;;;;;;-148.88;100.00;76413.03;5079504;28;20032;-81
2023/01/30 09:45:38;;;;;;;10.40;2.42;;;;;;;-148.88;100.00;76408.97;5078520;28;20098;-81
2023/01/30 09:48:17;;;;;;;15.13;2.22;;;;;;;-148.88;100.00;76404.91;5080434;28;20527;-81
2023/01/30 09:51:00;;;;;;;17.23;2.42;;;;;;;-148.88;100.00;76411.00;5079978;28;20029;-81
2023/01/30 09:53:55;;;;;;;15.32;2.40;;;;;;;-148.88;100.00;76402.88;5080475;28;20025;-81
2023/01/30 09:56:20;;;;;;;9.30;2.50;;;;;;;-148.88;100.00;76394.75;5078548;28;20033;-81
2023/01/30 09:59:09;;;;;;;14.43;2.28;;;;;;;-148.88;99.52;76386.63;5079976;28;20107;-81
2023/01/30 10:01:47;;;;;;;12.60;2.30;;;;;;;-148.88;100.00;76406.94;5079705;28;20110;-80
2023/01/30 10:04:15;;;;;;;12.75;2.08;;;;;;;-148.88;97.55;76366.31;5078301;28;20017;-80
2023/01/30 10:06:54;;;;;;;9.88;2.10;;;;;;;-148.88;98.54;76372.41;5077766;28;20020;-80
2023/01/30 10:10:02;;;;;;;12.07;2.65;;;;;;;-148.88;96.83;76354.13;5077084;28;20517;-80
2023/01/30 10:12:32;;;;;;;9.68;2.10;;;;;;;-148.88;96.29;76354.13;5076273;28;20039;-80
2023/01/30 10:15:06;;;;;;;13.55;2.22;;;;;;;-148.88;97.54;76356.16;5077624;28;20119;-80
2023/01/30 10:17:40;;;;;;;;;;;;;;;-148.88;98.07;76339.91;5076686;28;20483;-80
2023/01/30 10:20:17;;;;;;;14.95;2.17;;;;;;;-148.88;96.63;76343.97;5076857;28;19962;-81
2023/01/30 10:22:54;;;;;;;9.57;2.17;;;;;;;-148.88;96.93;76354.13;5079691;28;20056;-81
2023/01/30 10:25:41;;;;;;;10.18;2.33;;;;;;;-148.88;96.14;76352.09;5077577;28;20028;-81
2023/01/30 10:28:18;;;;;;;23.40;3.08;;;;;;;-148.88;96.54;76358.19;5077612;28;20394;-81
2023/01/30 10:30:46;;;;;;;12.23;2.03;;;;;;;-148.88;96.30;76358.19;5078885;28;20486;-81
2023/01/30 10:33:23;;;;;;;15.48;2.55;;;;;;;-148.88;96.97;76364.28;5078323;28;20088;-80
2023/01/30 10:36:05;;;;;;;12.77;2.15;;;;;;;-148.88;98.29;76354.13;5077638;28;20089;-81
2023/01/30 10:38:48;;;;;;;14.40;2.30;;;;;;;-148.88;98.65;76382.56;5079961;28;20071;-82
2023/01/30 10:41:17;;;;;;;13.75;2.55;;;;;;;-148.88;100.00;76380.53;5077877;28;20066;-81
2023/01/30 10:43:46;;;;;;;16.95;2.00;;;;;;;-148.88;100.00;76415.06;5076675;28;20032;-80
2023/01/30 10:46:52;;;;;;;14.35;2.17;;;;;;;-148.88;100.00;76398.81;5075088;28;20418;-80
2023/01/30 10:49:21;;;;;;;13.23;2.58;;;;;;;-148.88;100.00;76415.06;5075623;28;20044;-80
2023/01/30 10:51:55;;;;;;;15.35;2.42;;;;;;;-148.88;100.00;76419.16;5077882;28;20051;-80
2023/01/30 10:54:35;;;;;;;12.13;2.08;;;;;;;-148.88;100.00;76431.34;5077531;28;20112;-80
2023/01/30 10:57:24;;;;;;;16.75;2.53;;;;;;;-148.88;100.00;76425.25;5078980;28;20028;-81
2023/01/30 11:00:01;;;;;;;13.07;2.55;;;;;;;-148.88;100.00;76421.19;5081835;28;20025;-81
2023/01/30 11:02:48;;;;;;;12.43;2.30;;;;;;;-148.88;100.00;76400.84;5081021;28;20024;-81
2023/01/30 11:05:17;;;;;;;11.18;2.38;;;;;;;-148.88;100.00;76386.63;5079998;28;20101;-81
2023/01/30 11:07:45;;;;;;;7.75;1.63;;;;;;;-148.88;100.00;76362.25;5078687;28;20107;-81
2023/01/30 11:10:23;;;;;;;16.23;2.33;;;;;;;-148.88;99.42;76341.94;5078117;28;20032;-81
2023/01/30 11:13:08;;;;;;;14.93;2.05;;;;;;;-148.88;97.88;76337.88;5079379;28;20390;-80
2023/01/30 11:15:40;;;;;;;10.57;2.10;;;;;;;-148.88;95.63;76309.44;5078211;28;20032;-81
2023/01/30 11:18:06;;;;;;;15.55;2.40;;;;;;;-148.88;96.88;76323.66;5077177;28;20025;-81
2023/01/30 11:20:39;;;;;;;10.40;2.08;;;;;;;-148.88;97.51;76341.94;5076492;28;20069;-79
2023/01/30 11:23:07;;;;;;;13.07;2.17;;;;;;;-148.88;97.27;76337.88;5074579;28;20021;-79
2023/01/30 11:25:47;;;;;;;13.43;3.47;;;;;;;-148.88;95.89;76321.63;5076929;28;20107;-80
2023/01/30 11:28:16;;;;;;;14.27;1.52;;;;;;;-148.88;95.40;76317.56;5075836;28;20024;-81